Time;durP1;ratioP1;P1;durP2;ratioP2;P2;SDS_P1;SDS_P2;PMS_P1;PMS_P2;Temp;Humidity;BMP_temperature;BMP_pressure;BME280_temperature;BME280_humidity;BME280_pressure;Samples;Min_cycle;Max_cycle;Signal;HPM_P1;HPM_P2
2022/07/19 00:02:00;;;;;;;3.60;2.22;;;28.50;44.90;;;;;;5069105;28;20468;-79
2022/07/19 00:04:26;;;;;;;3.28;2.10;;;28.40;44.80;;;;;;5072734;28;20029;-80
2022/07/19 00:06:54;;;;;;;3.72;2.22;;;28.40;44.90;;;;;;5070199;28;20107;-85
2022/07/19 00:09:21;;;;;;;3.10;2.10;;;28.30;44.80;;;;;;5070843;28;20025;-79
2022/07/19 00:11:47;;;;;;;4.07;2.00;;;28.30;44.90;;;;;;5070344;28;20036;-80
2022/07/19 00:14:13;;;;;;;2.63;1.98;;;28.30;45.00;;;;;;5069948;28;21678;-82
2022/07/19 00:16:38;;;;;;;3.20;2.00;;;28.20;44.90;;;;;;5054730;28;20020;-79
2022/07/19 00:19:04;;;;;;;4.07;2.28;;;28.20;45.00;;;;;;5064540;28;20547;-79
2022/07/19 00:21:30;;;;;;;2.92;2.20;;;28.20;45.10;;;;;;5063953;28;20033;-79
2022/07/19 00:23:55;;;;;;;2.83;2.10;;;28.10;45.00;;;;;;5069712;28;20025;-79
2022/07/19 00:26:21;;;;;;;2.70;2.08;;;28.10;45.10;;;;;;5069829;28;20028;-80
2022/07/19 00:28:47;;;;;;;2.97;1.92;;;28.00;45.10;;;;;;5070179;28;20055;-83
2022/07/19 00:31:13;;;;;;;3.33;2.10;;;28.00;45.10;;;;;;5070591;28;20464;-82
2022/07/19 00:33:39;;;;;;;3.17;1.95;;;28.00;45.20;;;;;;5069825;28;20036;-78
2022/07/19 00:36:05;;;;;;;3.08;2.03;;;27.90;45.10;;;;;;5048548;28;20043;-79
2022/07/19 00:38:30;;;;;;;2.47;1.92;;;27.90;45.20;;;;;;5063678;28;20068;-79
2022/07/19 00:40:56;;;;;;;2.67;1.95;;;27.90;45.30;;;;;;5053240;28;20044;-79
2022/07/19 00:43:22;;;;;;;2.28;1.92;;;27.80;45.30;;;;;;5071936;28;20481;-78
2022/07/19 00:45:47;;;;;;;2.65;2.05;;;27.80;45.30;;;;;;5070658;28;20108;-84
2022/07/19 00:48:13;;;;;;;2.60;1.80;;;27.70;45.40;;;;;;5067765;28;20401;-79
2022/07/19 00:50:39;;;;;;;3.40;2.17;;;27.70;45.40;;;;;;5053093;28;20032;-79
2022/07/19 00:53:05;;;;;;;2.45;1.90;;;27.60;45.40;;;;;;5065140;28;20020;-79
2022/07/19 00:55:35;;;;;;;2.88;2.10;;;27.60;45.40;;;;;;5071200;28;20036;-79
2022/07/19 00:58:01;;;;;;;2.75;1.98;;;27.60;45.50;;;;;;5069845;28;20028;-78
2022/07/19 01:00:30;;;;;;;2.95;2.10;;;27.60;45.50;;;;;;5068090;28;20496;-79
2022/07/19 01:02:56;;;;;;;2.30;1.75;;;27.50;45.60;;;;;;5065964;28;20056;-79
2022/07/19 01:05:22;;;;;;;3.40;2.25;;;27.50;46.30;;;;;;5070722;28;20522;-79
2022/07/19 01:07:48;;;;;;;3.33;1.90;;;27.40;45.60;;;;;;5062037;28;20033;-78
2022/07/19 01:10:15;;;;;;;3.38;2.13;;;27.40;45.70;;;;;;5071274;28;20043;-78
2022/07/19 01:12:42;;;;;;;3.28;2.05;;;27.40;45.70;;;;;;5067889;28;20024;-79
2022/07/19 01:15:17;;;;;;;2.30;1.88;;;27.30;45.70;;;;;;5075287;28;20031;-79
2022/07/19 01:17:43;;;;;;;3.13;1.90;;;27.30;45.80;;;;;;5060331;28;20388;-83
2022/07/19 01:20:10;;;;;;;2.40;1.92;;;27.30;45.80;;;;;;5070507;28;20037;-79
2022/07/19 01:22:37;;;;;;;2.60;2.05;;;27.20;45.80;;;;;;5071250;28;20105;-79
2022/07/19 01:25:04;;;;;;;2.13;1.75;;;27.20;45.80;;;;;;5072197;28;20020;-78
2022/07/19 01:27:30;;;;;;;2.75;1.77;;;27.10;45.80;;;;;;5069363;28;20067;-79
2022/07/19 01:29:55;;;;;;;3.22;2.25;;;27.10;45.80;;;;;;5069436;28;20067;-79
2022/07/19 01:32:21;;;;;;;2.67;1.73;;;27.10;45.90;;;;;;5064504;28;20036;-78
2022/07/19 01:34:47;;;;;;;2.75;2.00;;;27.00;45.90;;;;;;5071531;28;20036;-79
2022/07/19 01:37:13;;;;;;;3.42;2.03;;;27.00;45.90;;;;;;5058246;28;20045;-79
2022/07/19 01:39:39;;;;;;;2.83;1.90;;;27.00;46.00;;;;;;5056634;28;20116;-80
2022/07/19 01:42:04;;;;;;;3.30;2.10;;;27.00;46.00;;;;;;5064460;28;20039;-78
2022/07/19 01:44:30;;;;;;;2.53;1.92;;;26.90;46.00;;;;;;5085652;28;20063;-78
2022/07/19 01:46:56;;;;;;;2.13;1.70;;;26.90;46.00;;;;;;5064531;28;20028;-79
2022/07/19 01:49:22;;;;;;;3.05;2.03;;;26.90;46.20;;;;;;5074938;28;20578;-78
2022/07/19 01:51:47;;;;;;;3.58;2.08;;;26.80;46.10;;;;;;5069553;28;20051;-79
2022/07/19 01:54:13;;;;;;;2.40;1.70;;;26.80;46.20;;;;;;5073658;28;20361;-79
2022/07/19 01:56:43;;;;;;;3.13;1.83;;;26.80;46.20;;;;;;5073355;28;20033;-80
2022/07/19 01:59:08;;;;;;;2.22;1.77;;;26.70;46.20;;;;;;5066650;28;20025;-79
2022/07/19 02:01:34;;;;;;;2.53;1.90;;;26.70;46.30;;;;;;5058235;28;20441;-79
2022/07/19 02:04:00;;;;;;;2.63;1.80;;;26.60;46.20;;;;;;5073930;28;20123;-80
2022/07/19 02:06:26;;;;;;;2.40;1.90;;;26.60;46.30;;;;;;5052616;28;20037;-79
2022/07/19 02:08:52;;;;;;;3.45;1.95;;;26.60;46.30;;;;;;5051668;28;20020;-79
2022/07/19 02:11:36;;;;;;;3.05;1.98;;;26.60;46.50;;;;;;5056930;28;20135;-79
2022/07/19 02:14:07;;;;;;;3.27;2.07;;;26.50;46.40;;;;;;5058835;28;20032;-79
2022/07/19 02:16:35;;;;;;;2.90;2.08;;;26.50;46.40;;;;;;5069544;28;20485;-78
2022/07/19 02:19:00;;;;;;;2.75;1.77;;;26.50;46.50;;;;;;5056798;28;20491;-79
2022/07/19 02:21:26;;;;;;;3.20;2.10;;;26.40;46.50;;;;;;5062175;28;20043;-79
2022/07/19 02:23:52;;;;;;;3.35;1.90;;;26.40;47.20;;;;;;5050533;28;20493;-78
2022/07/19 02:26:18;;;;;;;2.38;1.90;;;26.30;46.50;;;;;;5073379;28;20491;-79
2022/07/19 02:28:43;;;;;;;2.55;1.90;;;26.30;46.60;;;;;;5058394;28;20116;-81
2022/07/19 02:31:09;;;;;;;2.78;2.05;;;26.30;46.60;;;;;;5070225;28;20405;-79
2022/07/19 02:33:35;;;;;;;2.65;2.10;;;26.30;46.70;;;;;;5066338;28;20086;-79
2022/07/19 02:36:01;;;;;;;2.80;1.95;;;26.20;46.60;;;;;;5069783;28;20070;-79
2022/07/19 02:38:27;;;;;;;2.38;1.70;;;26.20;46.70;;;;;;5069050;28;20075;-78
2022/07/19 02:40:52;;;;;;;2.60;1.75;;;26.20;46.80;;;;;;5071030;28;20045;-79
2022/07/19 02:43:18;;;;;;;3.45;2.00;;;26.10;47.40;;;;;;5051617;28;20029;-79
2022/07/19 02:45:44;;;;;;;2.85;1.80;;;26.10;46.80;;;;;;5070023;28;20033;-78
2022/07/19 02:48:10;;;;;;;2.70;1.80;;;26.00;46.80;;;;;;5071888;28;20037;-79
2022/07/19 02:50:35;;;;;;;2.95;1.92;;;26.00;46.80;;;;;;5054978;28;20028;-79
2022/07/19 02:53:01;;;;;;;2.50;2.10;;;26.00;46.90;;;;;;5072748;28;20067;-79
2022/07/19 02:55:27;;;;;;;3.00;1.88;;;26.00;47.00;;;;;;5058219;28;20039;-79
2022/07/19 02:57:53;;;;;;;2.60;1.95;;;25.90;46.90;;;;;;5072255;28;20028;-79
2022/07/19 03:00:19;;;;;;;2.30;1.90;;;25.90;47.00;;;;;;5040922;28;20439;-80
2022/07/19 03:02:45;;;;;;;2.53;1.80;;;25.90;47.00;;;;;;5074173;28;20350;-79
2022/07/19 03:05:11;;;;;;;2.97;2.00;;;25.90;47.00;;;;;;5056088;28;20036;-78
2022/07/19 03:07:37;;;;;;;2.58;1.80;;;25.80;47.00;;;;;;5055477;28;20035;-79
2022/07/19 03:10:04;;;;;;;3.03;2.00;;;25.80;47.10;;;;;;5069328;28;20033;-82
2022/07/19 03:12:29;;;;;;;2.75;2.03;;;25.80;47.10;;;;;;5071714;28;20107;-78
2022/07/19 03:14:55;;;;;;;3.22;2.20;;;25.70;47.10;;;;;;5073097;28;20088;-81
2022/07/19 03:17:21;;;;;;;3.17;1.88;;;25.70;47.20;;;;;;5047254;28;20032;-78
2022/07/19 03:19:46;;;;;;;2.83;1.88;;;25.70;47.20;;;;;;5064203;28;20029;-80
2022/07/19 03:22:12;;;;;;;2.03;1.80;;;25.60;47.20;;;;;;5066605;28;20056;-79
2022/07/19 03:24:38;;;;;;;2.83;2.00;;;25.60;47.20;;;;;;5055273;28;20032;-79
2022/07/19 03:27:04;;;;;;;3.47;2.13;;;25.60;47.90;;;;;;5053778;28;20087;-78
2022/07/19 03:29:30;;;;;;;2.60;2.00;;;25.60;47.30;;;;;;5064694;28;20082;-78
2022/07/19 03:31:56;;;;;;;2.80;2.10;;;25.50;47.30;;;;;;5055668;28;20446;-78
2022/07/19 03:34:22;;;;;;;2.70;2.10;;;25.50;47.30;;;;;;5055282;28;20028;-78
2022/07/19 03:36:48;;;;;;;3.75;2.20;;;25.50;47.30;;;;;;5054288;28;20029;-78
2022/07/19 03:39:14;;;;;;;2.20;1.80;;;25.50;47.40;;;;;;5068383;28;20387;-78
2022/07/19 03:41:39;;;;;;;2.78;1.92;;;25.40;47.40;;;;;;5053587;28;20106;-78
2022/07/19 03:44:05;;;;;;;2.55;2.00;;;25.40;47.40;;;;;;5068076;28;20028;-78
2022/07/19 03:46:31;;;;;;;2.88;2.10;;;25.40;47.40;;;;;;5065349;28;20469;-79
2022/07/19 03:48:57;;;;;;;2.28;1.70;;;25.30;47.40;;;;;;5070240;28;20393;-78
2022/07/19 03:51:23;;;;;;;3.35;2.17;;;25.30;47.50;;;;;;5054516;28;20041;-81
2022/07/19 03:53:50;;;;;;;3.17;1.88;;;25.30;47.50;;;;;;5069018;28;20028;-79
2022/07/19 03:56:17;;;;;;;2.22;1.80;;;25.30;47.60;;;;;;5064094;28;20032;-79
2022/07/19 03:58:44;;;;;;;2.58;1.90;;;25.30;47.60;;;;;;5067685;28;20028;-82
2022/07/19 04:01:10;;;;;;;2.25;1.75;;;25.20;47.60;;;;;;5075620;28;20533;-79
2022/07/19 04:03:40;;;;;;;1.98;1.70;;;25.20;47.60;;;;;;5071259;28;20032;-78
2022/07/19 04:06:06;;;;;;;2.35;2.05;;;25.20;47.70;;;;;;5070192;28;20024;-80
2022/07/19 04:08:33;;;;;;;2.85;1.80;;;25.10;47.60;;;;;;5067709;28;20040;-79
2022/07/19 04:10:59;;;;;;;2.95;1.98;;;25.10;47.70;;;;;;5071520;28;20039;-79
2022/07/19 04:13:24;;;;;;;3.05;1.90;;;25.10;47.70;;;;;;5052767;28;20112;-79
2022/07/19 04:15:50;;;;;;;2.67;1.70;;;25.10;47.70;;;;;;5061412;28;20461;-79
2022/07/19 04:18:16;;;;;;;1.83;1.65;;;25.10;47.80;;;;;;5044244;28;20123;-79
2022/07/19 04:20:42;;;;;;;3.08;1.90;;;25.00;47.80;;;;;;5071199;28;20036;-81
2022/07/19 04:23:08;;;;;;;2.78;1.85;;;25.00;47.80;;;;;;5071216;28;20033;-81
2022/07/19 04:25:34;;;;;;;1.90;1.70;;;25.00;47.90;;;;;;5070410;28;20407;-79
2022/07/19 04:28:01;;;;;;;2.58;1.88;;;24.90;47.80;;;;;;5064212;28;20171;-80
2022/07/19 04:30:27;;;;;;;2.53;1.65;;;24.90;47.90;;;;;;5077850;28;20039;-79
2022/07/19 04:32:53;;;;;;;2.05;1.70;;;24.90;47.90;;;;;;5075181;28;20369;-80
2022/07/19 04:35:19;;;;;;;3.20;1.75;;;24.90;47.90;;;;;;5070034;28;20086;-80
2022/07/19 04:37:45;;;;;;;2.22;1.60;;;24.80;47.90;;;;;;5070756;28;20036;-81
2022/07/19 04:40:11;;;;;;;2.72;1.80;;;24.80;47.90;;;;;;5057979;28;20535;-82
2022/07/19 04:42:36;;;;;;;2.63;2.10;;;24.80;48.00;;;;;;5067819;28;20040;-81
2022/07/19 04:45:02;;;;;;;2.80;1.98;;;24.80;48.00;;;;;;5053286;28;20036;-78
2022/07/19 04:47:28;;;;;;;2.20;1.67;;;24.80;48.00;;;;;;5053631;28;20037;-80
2022/07/19 04:49:54;;;;;;;2.17;1.80;;;24.80;48.10;;;;;;5053881;28;20427;-80
2022/07/19 04:52:20;;;;;;;2.45;1.90;;;24.70;48.00;;;;;;5061771;28;20392;-78
2022/07/19 04:54:45;;;;;;;2.42;1.70;;;24.70;48.10;;;;;;5074006;28;20456;-82
2022/07/19 04:57:11;;;;;;;1.90;1.55;;;24.70;48.10;;;;;;5077794;28;20029;-78
2022/07/19 04:59:37;;;;;;;1.92;1.63;;;24.70;48.10;;;;;;5047185;28;20370;-79
2022/07/19 05:02:02;;;;;;;2.05;1.70;;;24.70;48.10;;;;;;5060376;28;20147;-81
2022/07/19 05:04:28;;;;;;;2.80;1.70;;;24.70;48.20;;;;;;5052766;28;20560;-79
2022/07/19 05:06:56;;;;;;;2.70;1.90;;;24.70;48.20;;;;;;5052938;28;20435;-78
2022/07/19 05:09:27;;;;;;;2.80;1.80;;;24.70;48.20;;;;;;5054997;28;20047;-83
2022/07/19 05:11:54;;;;;;;2.78;1.67;;;24.60;48.20;;;;;;5066713;28;20051;-79
2022/07/19 05:14:20;;;;;;;3.00;1.80;;;24.60;48.20;;;;;;5057406;28;20024;-79
2022/07/19 05:16:49;;;;;;;2.83;1.80;;;24.60;48.20;;;;;;5057305;28;20061;-80
2022/07/19 05:19:16;;;;;;;2.88;1.90;;;24.60;48.20;;;;;;5066860;28;20099;-78
2022/07/19 05:21:42;;;;;;;2.30;1.73;;;24.60;48.90;;;;;;5063232;28;20032;-78
2022/07/19 05:24:08;;;;;;;3.05;1.77;;;24.60;48.20;;;;;;5054875;28;20044;-79
2022/07/19 05:26:35;;;;;;;2.78;1.92;;;24.60;48.20;;;;;;5081183;28;20032;-79
2022/07/19 05:29:02;;;;;;;3.35;1.80;;;24.60;48.20;;;;;;5027282;28;20511;-80
2022/07/19 05:31:28;;;;;;;1.98;1.77;;;24.60;48.20;;;;;;5077917;28;20694;-79
2022/07/19 05:33:53;;;;;;;2.22;1.67;;;24.60;48.20;;;;;;5057994;28;20119;-79
2022/07/19 05:36:19;;;;;;;3.33;1.63;;;24.60;48.20;;;;;;5051551;28;20032;-79
2022/07/19 05:38:45;;;;;;;1.88;1.67;;;24.60;48.20;;;;;;5026904;28;20057;-78
2022/07/19 05:41:10;;;;;;;3.28;1.90;;;24.50;48.10;;;;;;5049701;28;20067;-80
2022/07/19 05:43:38;;;;;;;1.95;1.60;;;24.50;48.10;;;;;;5044711;28;20419;-81
2022/07/19 05:46:05;;;;;;;4.43;1.90;;;24.50;48.20;;;;;;5059861;28;20035;-79
2022/07/19 05:48:31;;;;;;;3.38;2.00;;;24.50;48.10;;;;;;5061802;28;20045;-79
2022/07/19 05:50:58;;;;;;;2.42;1.52;;;24.50;48.20;;;;;;5066091;28;20036;-80
2022/07/19 05:53:24;;;;;;;2.60;1.98;;;24.50;48.20;;;;;;5086526;28;20027;-82
2022/07/19 05:55:51;;;;;;;3.35;1.98;;;24.60;48.20;;;;;;5058053;28;20098;-79
2022/07/19 05:58:20;;;;;;;2.15;1.73;;;24.60;48.20;;;;;;5050863;28;20401;-79
2022/07/19 06:03:31;;;;;;;2.88;1.80;;;24.60;48.20;;;;;;5074326;28;20040;-78
2022/07/19 06:05:57;;;;;;;2.70;1.60;;;24.60;48.20;;;;;;5056625;28;20028;-79
2022/07/19 06:08:23;;;;;;;2.10;1.73;;;24.60;48.20;;;;;;5072444;28;20523;-79
2022/07/19 06:10:49;;;;;;;3.45;2.20;;;24.60;48.20;;;;;;5072646;28;20032;-77
2022/07/19 06:13:15;;;;;;;3.30;2.25;;;24.60;48.90;;;;;;5056720;28;20480;-78
2022/07/19 06:15:41;;;;;;;2.42;1.75;;;24.60;48.30;;;;;;5072880;28;20035;-79
2022/07/19 06:18:07;;;;;;;2.42;1.75;;;24.60;48.30;;;;;;5072671;28;20029;-79
2022/07/19 06:20:32;;;;;;;3.28;1.88;;;24.60;48.30;;;;;;5040389;28;20048;-79
2022/07/19 06:22:58;;;;;;;3.28;1.90;;;24.60;48.30;;;;;;5074169;28;20029;-79
2022/07/19 06:25:24;;;;;;;2.92;1.90;;;24.60;48.30;;;;;;5065281;28;20024;-78
2022/07/19 06:27:49;;;;;;;2.35;1.70;;;24.60;48.30;;;;;;5073115;28;20036;-78
2022/07/19 06:30:15;;;;;;;3.45;2.00;;;24.60;48.30;;;;;;5053692;28;20070;-79
2022/07/19 06:32:41;;;;;;;3.35;2.05;;;24.70;48.30;;;;;;5073135;28;20039;-79
2022/07/19 06:35:07;;;;;;;3.60;1.98;;;24.70;48.30;;;;;;5059261;28;20036;-79
2022/07/19 06:37:33;;;;;;;2.67;1.65;;;24.70;48.40;;;;;;5084791;28;20033;-78
2022/07/19 06:39:58;;;;;;;2.45;2.03;;;24.70;48.40;;;;;;5072740;28;20035;-77
2022/07/19 06:42:24;;;;;;;3.85;2.20;;;24.70;48.40;;;;;;5071917;28;20192;-78
2022/07/19 06:44:50;;;;;;;3.05;2.17;;;24.80;48.50;;;;;;5055281;28;20532;-78
2022/07/19 06:47:15;;;;;;;3.10;2.03;;;24.80;48.50;;;;;;5067393;28;20025;-81
2022/07/19 06:49:41;;;;;;;3.50;2.20;;;24.80;48.50;;;;;;5072679;28;20043;-80
2022/07/19 06:52:07;;;;;;;3.97;2.30;;;24.80;48.50;;;;;;5073134;28;20052;-80
2022/07/19 06:54:33;;;;;;;2.50;1.80;;;24.80;48.60;;;;;;5055792;28;20028;-80
2022/07/19 06:56:59;;;;;;;3.13;2.00;;;24.80;48.60;;;;;;5039319;28;20017;-80
2022/07/19 06:59:24;;;;;;;2.78;1.90;;;24.80;48.60;;;;;;5068252;28;20131;-80
2022/07/19 07:01:50;;;;;;;3.40;2.10;;;24.90;48.70;;;;;;5055782;28;20037;-80
2022/07/19 07:04:16;;;;;;;2.95;2.08;;;24.90;48.70;;;;;;5072281;28;20032;-80
2022/07/19 07:06:42;;;;;;;3.65;2.40;;;24.90;48.70;;;;;;5072241;28;20374;-80
2022/07/19 07:09:07;;;;;;;2.97;2.00;;;24.90;48.70;;;;;;5054768;28;20374;-80
2022/07/19 07:11:33;;;;;;;3.42;2.08;;;25.00;48.70;;;;;;5071781;28;20036;-80
2022/07/19 07:13:59;;;;;;;2.88;2.17;;;25.00;48.70;;;;;;5051193;28;20035;-80
2022/07/19 07:16:25;;;;;;;3.55;2.38;;;25.00;48.80;;;;;;5072605;28;20028;-80
2022/07/19 07:18:50;;;;;;;4.03;2.42;;;25.00;48.80;;;;;;5072004;28;20029;-79
2022/07/19 07:21:16;;;;;;;3.60;2.30;;;25.10;48.90;;;;;;5073266;28;20116;-79
2022/07/19 07:23:42;;;;;;;2.97;2.15;;;25.10;48.90;;;;;;5071293;28;20372;-79
2022/07/19 07:26:08;;;;;;;3.85;2.10;;;25.10;48.80;;;;;;5056234;28;20031;-80
2022/07/19 07:28:34;;;;;;;2.78;1.90;;;25.10;48.90;;;;;;5070280;28;20033;-79
2022/07/19 07:31:00;;;;;;;3.47;2.28;;;25.10;48.80;;;;;;5048806;28;20052;-77
2022/07/19 07:33:26;;;;;;;3.58;2.40;;;25.20;48.90;;;;;;5073714;28;20029;-78
2022/07/19 07:35:51;;;;;;;3.78;2.17;;;25.20;48.90;;;;;;5054897;28;20078;-80
2022/07/19 07:38:17;;;;;;;3.75;2.20;;;25.20;48.90;;;;;;5055617;28;20056;-82
2022/07/19 07:40:43;;;;;;;3.33;2.20;;;25.30;48.90;;;;;;5065082;28;20535;-84
2022/07/19 07:43:09;;;;;;;3.15;2.30;;;25.30;48.90;;;;;;5071492;28;20020;-80
2022/07/19 07:45:34;;;;;;;3.08;2.28;;;25.30;48.90;;;;;;5071022;28;20025;-80
2022/07/19 07:48:00;;;;;;;4.50;2.30;;;25.40;49.00;;;;;;5054638;28;20116;-80
2022/07/19 07:50:26;;;;;;;3.10;1.80;;;25.40;48.90;;;;;;5071623;28;20040;-78
2022/07/19 07:52:52;;;;;;;3.55;1.98;;;25.50;49.00;;;;;;5070965;28;20086;-79
2022/07/19 07:55:17;;;;;;;2.95;1.95;;;25.50;49.00;;;;;;5055157;28;20089;-84
2022/07/19 07:57:43;;;;;;;5.38;2.40;;;25.60;49.00;;;;;;5071432;28;20039;-81
2022/07/19 08:00:12;;;;;;;3.70;2.20;;;25.60;48.90;;;;;;5050428;28;20482;-81
2022/07/19 08:02:39;;;;;;;2.60;1.80;;;25.60;48.90;;;;;;5071441;28;20059;-80
2022/07/19 08:05:05;;;;;;;2.72;1.90;;;25.70;48.90;;;;;;5067352;28;20029;-79
2022/07/19 08:07:31;;;;;;;2.97;1.67;;;25.80;48.90;;;;;;5071099;28;20481;-79
2022/07/19 08:09:59;;;;;;;2.90;2.05;;;25.90;48.90;;;;;;5066488;28;20048;-79
2022/07/19 08:12:25;;;;;;;6.43;2.45;;;25.90;48.80;;;;;;5072995;28;20033;-80
2022/07/19 08:14:51;;;;;;;2.88;1.90;;;26.00;48.80;;;;;;5085010;28;20020;-83
2022/07/19 08:17:17;;;;;;;2.78;1.95;;;26.10;48.90;;;;;;5061680;28;20023;-80
2022/07/19 08:19:42;;;;;;;3.65;2.00;;;26.20;48.90;;;;;;5070883;28;20032;-80
2022/07/19 08:22:08;;;;;;;2.58;1.80;;;26.30;48.90;;;;;;5070523;28;20051;-81
2022/07/19 08:24:34;;;;;;;2.65;1.77;;;26.30;48.90;;;;;;5066454;28;20048;-82
2022/07/19 08:27:00;;;;;;;5.15;2.10;;;26.40;48.90;;;;;;5074211;28;20035;-81
2022/07/19 08:29:25;;;;;;;3.33;1.80;;;26.50;48.90;;;;;;5051388;28;20071;-81
2022/07/19 08:31:51;;;;;;;2.72;2.00;;;26.50;48.80;;;;;;5082264;28;20032;-81
2022/07/19 08:34:17;;;;;;;2.97;1.85;;;26.70;49.00;;;;;;5054819;28;20365;-80
2022/07/19 08:36:43;;;;;;;2.97;1.92;;;26.70;49.50;;;;;;5073052;28;20024;-79
2022/07/19 08:39:08;;;;;;;2.88;1.60;;;26.80;48.90;;;;;;5070262;28;20028;-81
2022/07/19 08:41:34;;;;;;;2.65;1.80;;;26.90;48.90;;;;;;5069753;28;20036;-79
2022/07/19 08:44:03;;;;;;;2.42;1.75;;;27.00;48.90;;;;;;5056556;28;20031;-80
2022/07/19 08:46:29;;;;;;;3.15;2.00;;;27.10;49.00;;;;;;5072543;28;20441;-81
2022/07/19 08:48:55;;;;;;;2.50;1.77;;;27.20;49.00;;;;;;5068638;28;20115;-80
2022/07/19 08:51:22;;;;;;;2.33;1.60;;;27.30;49.00;;;;;;5066778;28;20047;-80
2022/07/19 08:53:51;;;;;;;2.08;1.58;;;27.40;49.00;;;;;;5071926;28;20029;-81
2022/07/19 08:59:04;;;;;;;2.35;1.58;;;27.60;49.60;;;;;;5072200;28;20081;-80
2022/07/19 09:01:30;;;;;;;2.38;1.80;;;27.70;48.90;;;;;;5069188;28;20036;-81
2022/07/19 09:04:16;;;;;;;2.95;1.73;;;27.80;49.00;;;;;;5050068;28;20123;-81
2022/07/19 09:06:49;;;;;;;2.45;1.50;;;27.90;49.20;;;;;;5057446;28;20021;-80
2022/07/19 09:09:20;;;;;;;2.97;1.88;;;28.00;49.10;;;;;;5069794;28;20060;-79
2022/07/19 09:11:49;;;;;;;2.70;1.70;;;28.10;49.10;;;;;;5069756;28;20032;-79
2022/07/19 09:14:34;;;;;;;1.95;1.65;;;28.20;49.10;;;;;;5069601;28;20024;-81
2022/07/19 09:17:06;;;;;;;2.33;1.50;;;28.30;49.20;;;;;;5071251;28;20086;-80
2022/07/19 09:19:34;;;;;;;2.85;1.60;;;28.40;49.10;;;;;;5070618;28;20040;-81
2022/07/19 09:22:05;;;;;;;2.45;1.48;;;28.60;49.30;;;;;;5051425;28;20248;-81
2022/07/19 09:24:34;;;;;;;2.15;1.60;;;28.70;49.30;;;;;;5053987;28;20020;-80
2022/07/19 09:27:06;;;;;;;2.22;1.63;;;28.80;49.30;;;;;;5071368;28;20032;-80
2022/07/19 09:29:35;;;;;;;1.90;1.60;;;28.90;49.30;;;;;;5069588;28;20021;-80
2022/07/19 09:32:02;;;;;;;2.78;1.60;;;29.00;49.20;;;;;;5053806;28;20020;-81
2022/07/19 09:34:34;;;;;;;3.17;1.77;;;29.10;49.30;;;;;;5070642;28;20028;-82
2022/07/19 09:37:13;;;;;;;2.03;1.50;;;29.20;49.30;;;;;;5066935;28;20024;-83
2022/07/19 09:39:44;;;;;;;2.58;1.50;;;29.30;49.40;;;;;;5067255;28;20123;-81
2022/07/19 09:42:13;;;;;;;2.35;1.52;;;29.50;49.30;;;;;;5069352;28;20036;-81
2022/07/19 09:44:39;;;;;;;2.53;1.50;;;29.60;49.20;;;;;;5053386;28;20024;-80
2022/07/19 09:47:04;;;;;;;2.28;1.35;;;29.70;49.20;;;;;;5070784;28;20036;-80
2022/07/19 09:49:30;;;;;;;1.80;1.45;;;29.80;49.10;;;;;;5070363;28;20020;-81
2022/07/19 09:51:56;;;;;;;2.03;1.50;;;29.90;49.20;;;;;;5070887;28;20037;-80
2022/07/19 09:54:24;;;;;;;1.95;1.50;;;30.00;49.20;;;;;;5060210;28;20120;-80
2022/07/19 09:56:51;;;;;;;2.53;1.67;;;30.10;49.20;;;;;;5074460;28;20031;-83
2022/07/19 09:59:19;;;;;;;1.50;1.13;;;30.20;49.10;;;;;;5056462;28;20102;-80
2022/07/19 10:01:48;;;;;;;1.50;1.40;;;30.30;49.10;;;;;;5063195;28;20478;-80
2022/07/19 10:04:19;;;;;;;1.90;1.45;;;30.40;49.10;;;;;;5070330;28;20123;-80
2022/07/19 10:06:47;;;;;;;4.05;1.35;;;30.40;49.00;;;;;;5069024;28;20502;-80
2022/07/19 10:09:16;;;;;;;2.03;1.20;;;30.60;49.00;;;;;;5073386;28;20107;-80
2022/07/19 10:11:42;;;;;;;1.70;1.40;;;30.70;49.00;;;;;;5065870;28;20533;-80
2022/07/19 10:14:09;;;;;;;2.28;1.45;;;30.80;49.00;;;;;;5073946;28;20054;-81
2022/07/19 10:16:58;;;;;;;2.17;1.40;;;30.90;48.90;;;;;;5070869;28;20461;-80
2022/07/19 10:19:46;;;;;;;1.95;1.48;;;31.00;49.00;;;;;;5073500;28;20035;-81
2022/07/19 10:22:14;;;;;;;1.65;1.35;;;31.20;49.00;;;;;;5074433;28;20431;-81
2022/07/19 10:24:46;;;;;;;2.58;1.50;;;31.30;48.90;;;;;;5073079;28;20064;-81
2022/07/19 10:27:14;;;;;;;2.65;1.52;;;31.40;48.90;;;;;;5056851;28;20107;-81
2022/07/19 10:29:40;;;;;;;2.67;1.50;;;31.50;48.90;;;;;;5056257;28;20369;-80
2022/07/19 10:32:08;;;;;;;2.20;1.40;;;31.60;48.80;;;;;;5073164;28;20032;-80
2022/07/19 10:34:35;;;;;;;3.15;1.42;;;31.70;48.80;;;;;;5073205;28;20028;-81
2022/07/19 10:37:01;;;;;;;1.45;1.20;;;31.80;48.70;;;;;;5066743;28;20397;-80
2022/07/19 10:39:39;;;;;;;2.20;1.45;;;31.90;48.60;;;;;;5052491;28;20123;-80
2022/07/19 10:42:07;;;;;;;1.73;1.25;;;32.00;48.60;;;;;;5064819;28;20165;-79
2022/07/19 10:44:34;;;;;;;1.85;1.30;;;32.10;48.50;;;;;;5071718;28;20029;-81
2022/07/19 10:47:03;;;;;;;1.85;1.20;;;32.20;48.40;;;;;;5064753;28;20033;-79
2022/07/19 10:49:46;;;;;;;1.67;1.40;;;32.30;48.30;;;;;;5055089;28;20539;-80
2022/07/19 10:52:39;;;;;;;1.40;1.08;;;32.40;48.30;;;;;;5057287;28;20111;-79
2022/07/19 10:55:18;;;;;;;2.53;1.50;;;32.50;48.30;;;;;;5071733;28;20052;-80
2022/07/19 10:57:50;;;;;;;2.33;1.30;;;32.60;48.20;;;;;;5049331;28;20025;-82
2022/07/19 11:00:26;;;;;;;1.83;1.23;;;32.70;48.20;;;;;;5072824;28;20057;-80
2022/07/19 11:03:12;;;;;;;1.92;1.30;;;32.80;48.10;;;;;;5073857;28;20189;-80
2022/07/19 11:05:50;;;;;;;1.48;1.20;;;32.90;48.00;;;;;;5085774;28;20039;-80
2022/07/19 11:08:16;;;;;;;2.15;1.30;;;33.00;48.00;;;;;;5072157;28;20028;-80
2022/07/19 11:10:42;;;;;;;1.42;1.10;;;33.10;48.00;;;;;;5072653;28;20353;-80
2022/07/19 11:13:08;;;;;;;1.73;1.15;;;33.20;47.90;;;;;;5072506;28;20128;-80
2022/07/19 11:15:34;;;;;;;1.77;1.20;;;33.30;48.00;;;;;;5055980;28;20052;-80
2022/07/19 11:18:07;;;;;;;2.53;1.23;;;33.40;48.00;;;;;;5072283;28;20104;-80
2022/07/19 11:20:35;;;;;;;1.95;1.35;;;33.40;48.00;;;;;;5073876;28;20040;-82
2022/07/19 11:23:03;;;;;;;1.40;1.20;;;33.50;48.00;;;;;;5067101;28;20032;-80
2022/07/19 11:25:35;;;;;;;1.55;1.27;;;33.60;48.10;;;;;;5072564;28;20056;-80
2022/07/19 11:28:01;;;;;;;1.42;1.10;;;33.60;48.20;;;;;;5071981;28;20025;-81
2022/07/19 11:30:31;;;;;;;1.20;1.10;;;33.70;48.20;;;;;;5055517;28;20415;-81
2022/07/19 11:32:59;;;;;;;2.45;1.40;;;33.80;48.40;;;;;;5072105;28;20132;-80
2022/07/19 11:35:26;;;;;;;1.67;1.20;;;33.80;48.40;;;;;;5068290;28;20036;-80
2022/07/19 11:37:58;;;;;;;1.48;1.10;;;33.90;48.50;;;;;;5068058;28;20037;-80
2022/07/19 11:40:31;;;;;;;2.00;1.27;;;34.00;48.70;;;;;;5067245;28;20036;-82
2022/07/19 11:42:57;;;;;;;1.85;1.23;;;34.00;48.70;;;;;;5071488;28;20016;-81
2022/07/19 11:45:26;;;;;;;1.45;1.02;;;34.10;48.80;;;;;;5055341;28;20029;-81
2022/07/19 11:47:55;;;;;;;2.40;1.27;;;34.10;48.90;;;;;;5063087;28;20028;-81
2022/07/19 11:50:23;;;;;;;1.98;1.25;;;34.20;48.90;;;;;;5071400;28;20359;-81
2022/07/19 11:52:49;;;;;;;1.67;1.33;;;34.20;49.00;;;;;;5069209;28;20029;-81
2022/07/19 11:55:16;;;;;;;1.63;1.30;;;34.30;49.00;;;;;;5069267;28;20586;-80
2022/07/19 11:57:42;;;;;;;1.92;1.30;;;34.30;49.10;;;;;;5072426;28;20025;-80
2022/07/19 12:00:10;;;;;;;1.70;1.17;;;34.30;49.20;;;;;;5072540;28;20184;-80
2022/07/19 12:03:03;;;;;;;1.85;1.20;;;34.40;49.30;;;;;;5078084;28;20511;-85
2022/07/19 12:05:31;;;;;;;1.67;1.10;;;34.40;49.30;;;;;;5054116;28;20506;-80
2022/07/19 12:08:08;;;;;;;1.77;1.23;;;34.50;49.20;;;;;;5073205;28;20362;-79
2022/07/19 12:10:45;;;;;;;1.58;1.20;;;34.50;49.30;;;;;;5061980;28;20112;-80
2022/07/19 12:13:14;;;;;;;1.63;1.20;;;34.50;49.30;;;;;;5068220;28;20028;-81
2022/07/19 12:15:49;;;;;;;1.63;1.15;;;34.50;49.20;;;;;;5071197;28;20069;-81
2022/07/19 12:18:17;;;;;;;1.60;1.15;;;34.60;49.30;;;;;;5072046;28;20407;-83
2022/07/19 12:20:44;;;;;;;2.20;1.30;;;34.60;49.20;;;;;;5064357;28;20111;-82
2022/07/19 12:23:22;;;;;;;1.27;1.17;;;34.60;49.10;;;;;;5071418;28;20101;-80
2022/07/19 12:25:49;;;;;;;1.30;1.17;;;34.70;49.20;;;;;;5065432;28;20545;-79
2022/07/19 12:28:15;;;;;;;2.17;1.23;;;34.70;49.20;;;;;;5053482;28;20032;-80
2022/07/19 12:30:40;;;;;;;1.40;1.27;;;34.70;49.10;;;;;;5047330;28;20491;-79
2022/07/19 12:33:15;;;;;;;1.40;1.25;;;34.70;49.00;;;;;;5065224;28;20029;-80
2022/07/19 12:35:46;;;;;;;1.70;1.20;;;34.70;48.90;;;;;;5053466;28;20021;-79
2022/07/19 12:38:12;;;;;;;1.50;1.27;;;34.80;48.80;;;;;;5066418;28;20037;-80
2022/07/19 12:40:42;;;;;;;1.80;1.30;;;34.80;48.60;;;;;;5069588;28;20036;-80
2022/07/19 12:43:12;;;;;;;1.48;1.10;;;34.80;48.50;;;;;;5048437;28;20044;-81
2022/07/19 12:45:47;;;;;;;2.15;1.27;;;34.90;48.40;;;;;;5066012;28;20033;-80
2022/07/19 12:48:14;;;;;;;1.75;1.30;;;34.90;48.40;;;;;;5049784;28;20033;-80
2022/07/19 12:50:48;;;;;;;1.75;1.20;;;34.90;48.20;;;;;;5071965;28;20040;-81
2022/07/19 12:53:16;;;;;;;1.40;1.17;;;34.90;48.10;;;;;;5063806;28;20039;-80
2022/07/19 12:55:43;;;;;;;1.80;1.25;;;34.90;48.00;;;;;;5070659;28;20052;-80